createdAt,value
2018-08-23T00:00:49.072Z,98015.81
2018-08-23T00:03:24.327Z,98017.98
2018-08-23T00:05:56.002Z,98020.30
2018-08-23T00:08:25.542Z,98019.52
2018-08-23T00:10:55.114Z,98010.30
2018-08-23T00:13:24.270Z,98012.27
2018-08-23T00:15:53.522Z,98017.17
2018-08-23T00:18:23.610Z,98015.36
2018-08-23T00:20:52.814Z,98015.07
2018-08-23T00:23:22.438Z,98005.89
2018-08-23T00:25:51.570Z,98016.91
2018-08-23T00:28:20.698Z,98011.30
2018-08-23T00:30:49.819Z,98014.13
2018-08-23T00:33:18.930Z,98006.59
2018-08-23T00:35:48.741Z,98012.73
2018-08-23T00:38:18.401Z,98002.03
2018-08-23T00:40:47.510Z,98002.20
2018-08-23T00:43:16.626Z,97996.79
2018-08-23T00:45:45.985Z,97997.21
2018-08-23T00:48:15.242Z,97993.86
2018-08-23T00:50:56.163Z,97985.05
2018-08-23T00:53:25.666Z,97987.86
2018-08-23T00:56:13.964Z,97985.67
2018-08-23T00:58:46.010Z,97983.31
2018-08-23T01:01:15.926Z,97978.54
2018-08-23T01:03:45.474Z,97984.08
2018-08-23T01:06:20.066Z,97976.20
2018-08-23T01:08:49.246Z,97973.66
2018-08-23T01:11:18.411Z,97972.41
2018-08-23T01:13:47.606Z,97971.37
2018-08-23T01:16:16.783Z,97976.45
2018-08-23T01:18:46.707Z,97981.47
2018-08-23T01:21:15.870Z,97981.80
2018-08-23T01:23:45.019Z,97982.09
2018-08-23T01:26:14.358Z,97988.17
2018-08-23T01:28:43.660Z,97988.17
2018-08-23T01:31:28.458Z,97987.35
2018-08-23T01:33:59.350Z,97986.55
2018-08-23T01:36:34.830Z,97981.94
2018-08-23T01:39:11.425Z,97984.08
2018-08-23T01:41:40.574Z,97985.30
2018-08-23T01:44:09.685Z,97992.84
2018-08-23T01:46:44.758Z,97986.25
2018-08-23T01:49:14.215Z,97981.73
2018-08-23T01:51:43.450Z,97983.38
2018-08-23T01:54:12.707Z,97985.59
2018-08-23T01:56:42.318Z,97990.19
2018-08-23T01:59:11.550Z,97986.12
2018-08-23T02:01:40.787Z,97985.47
2018-08-23T02:04:10.023Z,97989.00
2018-08-23T02:06:39.687Z,97985.22
2018-08-23T02:09:09.611Z,97985.39
2018-08-23T02:11:38.801Z,97980.66
2018-08-23T02:14:08.200Z,97972.89
2018-08-23T02:16:50.638Z,97974.58
2018-08-23T02:19:19.894Z,97976.42
2018-08-23T02:21:49.022Z,97980.58
2018-08-23T02:24:20.854Z,97979.03
2018-08-23T02:26:49.991Z,97979.16
2018-08-23T02:29:34.827Z,97983.02
2018-08-23T02:32:06.074Z,97975.28
2018-08-23T02:34:44.197Z,97972.01
2018-08-23T02:37:14.351Z,97969.27
2018-08-23T02:39:44.133Z,97976.28
2018-08-23T02:42:16.131Z,97972.34
2018-08-23T02:44:47.182Z,97967.91
2018-08-23T02:47:16.566Z,97963.34
2018-08-23T02:49:45.760Z,97964.22
2018-08-23T02:52:14.996Z,97960.75
2018-08-23T02:54:44.344Z,97958.34
2018-08-23T02:57:13.643Z,97959.37
2018-08-23T02:59:42.878Z,97956.28
2018-08-23T03:02:12.566Z,97955.99
2018-08-23T03:04:41.836Z,97952.95
2018-08-23T03:07:10.953Z,97947.61
2018-08-23T03:09:41.509Z,97938.05
2018-08-23T03:12:14.143Z,97941.91
2018-08-23T03:14:43.850Z,97944.10
2018-08-23T03:17:17.949Z,97951.78
2018-08-23T03:20:08.405Z,97946.84
2018-08-23T03:22:37.919Z,97944.88
2018-08-23T03:25:12.326Z,97938.31
2018-08-23T03:27:41.427Z,97941.95
2018-08-23T03:30:12.183Z,97937.80
2018-08-23T03:32:41.302Z,97938.48
2018-08-23T03:35:10.446Z,97937.07
2018-08-23T03:37:39.568Z,97940.83
2018-08-23T03:40:11.658Z,97937.88
2018-08-23T03:42:40.918Z,97942.52
2018-08-23T03:45:40.873Z,97936.50
2018-08-23T03:48:09.966Z,97941.73
2018-08-23T03:50:44.993Z,97945.39
2018-08-23T03:53:14.115Z,97948.23
2018-08-23T03:55:43.225Z,97948.00
2018-08-23T03:58:12.323Z,97946.84
2018-08-23T04:01:02.559Z,97953.55
2018-08-23T04:03:31.870Z,97952.94
2018-08-23T04:06:20.238Z,97961.19
2018-08-23T04:08:50.054Z,97963.80
2018-08-23T04:11:20.250Z,97962.86
2018-08-23T04:13:50.170Z,97965.91
2018-08-23T04:16:25.698Z,97967.09
2018-08-23T04:18:55.968Z,97961.38
2018-08-23T04:21:24.790Z,97960.91
2018-08-23T04:23:54.262Z,97961.80
2018-08-23T04:26:24.034Z,97960.00
2018-08-23T04:28:53.145Z,97955.80
2018-08-23T04:31:22.275Z,97957.65
2018-08-23T04:33:51.690Z,97963.40
2018-08-23T04:36:29.993Z,97959.49
2018-08-23T04:39:01.621Z,97959.16
2018-08-23T04:41:32.317Z,97966.09
2018-08-23T04:44:04.919Z,97965.73
2018-08-23T04:46:34.671Z,97962.84
2018-08-23T04:49:05.995Z,97969.08
2018-08-23T04:51:36.712Z,97962.73
2018-08-23T04:54:06.622Z,97958.92
2018-08-23T04:56:36.272Z,97962.42
2018-08-23T04:59:05.630Z,97962.64
2018-08-23T05:01:34.726Z,97962.42
2018-08-23T05:04:03.907Z,97956.44
2018-08-23T05:06:32.941Z,97957.78
2018-08-23T05:09:02.046Z,97956.75
2018-08-23T05:11:31.134Z,97954.59
2018-08-23T05:14:00.327Z,97960.63
2018-08-23T05:16:29.382Z,97957.63
2018-08-23T05:18:58.489Z,97961.57
2018-08-23T05:21:28.146Z,97958.61
2018-08-23T05:24:01.104Z,97959.28
2018-08-23T05:26:30.250Z,97950.03
2018-08-23T05:29:03.993Z,97955.41
2018-08-23T05:31:33.786Z,97954.62
2018-08-23T05:34:06.110Z,97961.47
2018-08-23T05:36:35.799Z,97958.56
2018-08-23T05:39:08.162Z,97954.34
2018-08-23T05:41:37.261Z,97957.44
2018-08-23T05:44:23.138Z,97962.44
2018-08-23T05:46:57.249Z,97962.59
2018-08-23T05:49:27.073Z,97967.38
2018-08-23T05:51:59.708Z,97958.19
2018-08-23T05:54:29.020Z,97954.61
2018-08-23T05:56:58.190Z,97956.53
2018-08-23T05:59:27.405Z,97948.80
2018-08-23T06:01:56.997Z,97950.15
2018-08-23T06:04:40.283Z,97950.94
2018-08-23T06:07:09.544Z,97962.69
2018-08-23T06:09:41.548Z,97957.81
2018-08-23T06:12:10.610Z,97965.66
2018-08-23T06:14:39.714Z,97971.62
2018-08-23T06:17:08.850Z,97968.53
2018-08-23T06:19:37.943Z,97969.00
2018-08-23T06:22:07.031Z,97976.13
2018-08-23T06:24:36.126Z,97974.21
2018-08-23T06:27:05.210Z,97970.33
2018-08-23T06:29:35.544Z,97971.14
2018-08-23T06:32:08.718Z,97976.03
2018-08-23T06:34:50.433Z,97964.78
2018-08-23T06:37:21.865Z,97965.24
2018-08-23T06:39:50.978Z,97969.64
2018-08-23T06:42:20.049Z,97962.89
2018-08-23T06:44:52.635Z,97965.23
2018-08-23T06:47:22.946Z,97963.95
2018-08-23T06:49:53.023Z,97968.13
2018-08-23T06:52:37.232Z,97960.96
2018-08-23T06:55:06.769Z,97962.83
2018-08-23T06:57:44.561Z,97951.58
2018-08-23T07:00:17.738Z,97954.38
2018-08-23T07:02:47.898Z,97960.44
2018-08-23T07:05:17.563Z,97959.66
2018-08-23T07:07:47.281Z,97963.05
2018-08-23T07:10:16.597Z,97965.92
2018-08-23T07:12:45.686Z,97959.86
2018-08-23T07:15:14.833Z,97958.70
2018-08-23T07:17:44.713Z,97964.66
2018-08-23T07:20:15.146Z,97961.53
2018-08-23T07:22:44.326Z,97961.79
2018-08-23T07:25:15.585Z,97958.49
2018-08-23T07:27:44.924Z,97957.13
2018-08-23T07:30:17.641Z,97960.63
2018-08-23T07:32:47.986Z,97954.47
2018-08-23T07:35:19.339Z,97954.44
2018-08-23T07:37:50.693Z,97956.20
2018-08-23T07:40:21.486Z,97959.56
2018-08-23T07:42:51.981Z,97961.01
2018-08-23T07:45:21.042Z,97957.23
2018-08-23T07:47:53.552Z,97965.33
2018-08-23T07:50:22.971Z,97961.56
2018-08-23T07:52:53.702Z,97956.78
2018-08-23T07:55:22.864Z,97957.11
2018-08-23T07:57:52.058Z,97952.73
2018-08-23T08:00:28.770Z,97950.27
2018-08-23T08:02:58.393Z,97954.48
2018-08-23T08:05:29.886Z,97946.11
2018-08-23T08:07:59.218Z,97947.73
2018-08-23T08:10:35.832Z,97956.35
2018-08-23T08:13:04.973Z,97955.36
2018-08-23T08:15:34.684Z,97961.98
2018-08-23T08:18:22.129Z,97969.66
2018-08-23T08:20:59.898Z,97973.31
2018-08-23T08:23:29.855Z,97971.11
2018-08-23T08:25:59.105Z,97973.44
2018-08-23T08:28:28.678Z,97972.06
2018-08-23T08:31:01.471Z,97975.17
2018-08-23T08:33:37.469Z,97979.73
2018-08-23T08:36:07.138Z,97981.82
2018-08-23T08:38:36.908Z,97981.28
2018-08-23T08:41:06.425Z,97980.55
2018-08-23T08:43:35.655Z,97978.67
2018-08-23T08:46:04.796Z,97982.95
2018-08-23T08:48:34.770Z,97990.39
2018-08-23T08:51:18.434Z,97986.22
2018-08-23T08:53:47.846Z,97988.47
2018-08-23T08:56:21.874Z,97984.95
2018-08-23T08:58:52.071Z,97991.78
2018-08-23T09:01:23.110Z,97987.45
2018-08-23T09:03:52.226Z,97987.60
2018-08-23T09:06:24.998Z,97984.34
2018-08-23T09:08:54.116Z,97983.00
2018-08-23T09:11:23.855Z,97986.03
2018-08-23T09:13:53.489Z,97982.67
2018-08-23T09:16:24.208Z,97977.84
2018-08-23T09:19:03.474Z,97981.22
2018-08-23T09:21:33.322Z,97978.75
2018-08-23T09:24:23.754Z,97979.37
2018-08-23T09:26:54.594Z,97981.37
2018-08-23T09:29:36.545Z,97981.67
2018-08-23T09:32:14.609Z,97982.17
2018-08-23T09:34:44.462Z,97973.67
2018-08-23T09:37:13.742Z,97973.36
2018-08-23T09:39:44.071Z,97968.22
2018-08-23T09:42:13.818Z,97969.39
2018-08-23T09:45:00.683Z,97966.84
2018-08-23T09:47:30.816Z,97962.62
2018-08-23T09:50:00.520Z,97958.06
2018-08-23T09:52:33.286Z,97953.91
2018-08-23T09:55:02.678Z,97954.44
2018-08-23T09:57:32.634Z,97951.60
2018-08-23T10:00:01.396Z,97952.25
2018-08-23T10:02:35.770Z,97946.42
2018-08-23T10:05:06.171Z,97948.41
2018-08-23T10:07:40.918Z,97948.95
2018-08-23T10:10:15.394Z,97945.25
2018-08-23T10:12:49.802Z,97950.78
2018-08-23T10:15:24.552Z,97947.16
2018-08-23T10:17:59.958Z,97940.84
2018-08-23T10:20:34.774Z,97939.61
2018-08-23T10:23:09.106Z,97939.52
2018-08-23T10:25:41.346Z,97934.57
2018-08-23T10:28:11.684Z,97935.31
2018-08-23T10:30:42.077Z,97940.02
2018-08-23T10:33:11.262Z,97937.08
2018-08-23T10:35:44.470Z,97936.67
2018-08-23T10:38:15.355Z,97928.31
2018-08-23T10:40:46.298Z,97922.39
2018-08-23T10:43:16.093Z,97924.92
2018-08-23T10:45:45.894Z,97920.16
2018-08-23T10:48:15.330Z,97923.45
2018-08-23T10:50:46.506Z,97926.02
2018-08-23T10:53:16.088Z,97924.98
2018-08-23T10:55:45.450Z,97923.94
2018-08-23T10:58:15.011Z,97915.59
2018-08-23T11:00:45.553Z,97910.54
2018-08-23T11:03:15.036Z,97902.65
2018-08-23T11:05:44.422Z,97904.40
2018-08-23T11:08:18.830Z,97897.80
2018-08-23T11:10:53.090Z,97900.47
2018-08-23T11:13:27.506Z,97891.14
2018-08-23T11:16:02.634Z,97891.34
2018-08-23T11:18:38.282Z,97876.91
2018-08-23T11:21:07.742Z,97873.53
2018-08-23T11:23:37.714Z,97875.78
2018-08-23T11:26:07.175Z,97869.93
2018-08-23T11:28:37.066Z,97854.60
2018-08-23T11:31:05.850Z,97857.83
2018-08-23T11:33:35.312Z,97844.20
2018-08-23T11:36:04.238Z,97842.46
2018-08-23T11:38:34.119Z,97837.66
2018-08-23T11:41:03.723Z,97820.48
2018-08-23T11:43:32.889Z,97818.09
2018-08-23T11:46:07.218Z,97816.60
2018-08-23T11:48:36.298Z,97811.98
2018-08-23T11:51:05.837Z,97809.52
2018-08-23T11:53:35.289Z,97811.33
2018-08-23T11:56:04.579Z,97809.61
2018-08-23T11:58:33.237Z,97808.13
2018-08-23T12:01:08.577Z,97801.16
2018-08-23T12:03:39.510Z,97806.69
2018-08-23T12:06:11.562Z,97805.76
2018-08-23T12:08:41.182Z,97809.33
2018-08-23T12:11:10.296Z,97810.89
2018-08-23T12:13:39.502Z,97816.00
2018-08-23T12:16:10.122Z,97815.09
2018-08-23T12:18:39.854Z,97825.77
2018-08-23T12:21:08.938Z,97821.67
2018-08-23T12:23:38.025Z,97829.00
2018-08-23T12:26:07.190Z,97826.80
2018-08-23T12:28:41.426Z,97823.94
2018-08-23T12:31:11.030Z,97829.23
2018-08-23T12:33:40.120Z,97832.45
2018-08-23T12:36:10.093Z,97831.48
2018-08-23T12:38:44.354Z,97842.48
2018-08-23T12:41:18.630Z,97865.05
2018-08-23T12:43:49.508Z,97868.58
2018-08-23T12:46:18.633Z,97867.60
2018-08-23T12:48:48.246Z,97853.52
2018-08-23T12:51:18.178Z,97858.67
2018-08-23T12:53:47.306Z,97864.80
2018-08-23T12:56:16.712Z,97868.47
2018-08-23T12:58:46.898Z,97858.23
2018-08-23T13:01:17.995Z,97859.31
2018-08-23T13:03:46.883Z,97856.34
2018-08-23T13:06:16.533Z,97851.73
2018-08-23T13:08:45.695Z,97849.22
2018-08-23T13:11:14.935Z,97840.41
2018-08-23T13:13:43.973Z,97831.11
2018-08-23T13:16:13.196Z,97831.81
2018-08-23T13:18:42.679Z,97840.94
2018-08-23T13:21:11.835Z,97847.92
2018-08-23T13:23:47.299Z,97845.80
2018-08-23T13:26:16.082Z,97844.89
2018-08-23T13:28:45.207Z,97850.34
2018-08-23T13:31:15.607Z,97862.34
2018-08-23T13:33:45.146Z,97864.20
2018-08-23T13:36:14.550Z,97869.23
2018-08-23T13:38:43.593Z,97858.11
2018-08-23T13:41:12.738Z,97863.86
2018-08-23T13:43:41.851Z,97860.23
2018-08-23T13:46:10.946Z,97860.23
2018-08-23T13:48:40.054Z,97851.94
2018-08-23T13:51:09.166Z,97843.42
2018-08-23T13:53:38.318Z,97839.53
2018-08-23T13:56:07.646Z,97839.53
2018-08-23T13:58:36.750Z,97837.72
2018-08-23T14:01:06.014Z,97831.24
2018-08-23T14:03:35.382Z,97827.84
2018-08-23T14:06:05.435Z,97831.48
2018-08-23T14:08:35.027Z,97830.97
2018-08-23T14:11:04.419Z,97818.28
2018-08-23T14:13:33.665Z,97810.78
2018-08-23T14:16:04.645Z,97830.20
2018-08-23T14:18:35.410Z,97822.70
2018-08-23T14:21:05.200Z,97827.11
2018-08-23T14:23:34.991Z,97819.83
2018-08-23T14:26:04.938Z,97819.55
2018-08-23T14:28:34.457Z,97807.36
2018-08-23T14:31:04.266Z,97797.52
2018-08-23T14:33:34.389Z,97794.91
2018-08-23T14:36:04.042Z,97791.82
2018-08-23T14:38:33.573Z,97790.04
2018-08-23T14:41:02.495Z,97776.57
2018-08-23T14:43:31.650Z,97770.62
2018-08-23T14:46:06.064Z,97770.39
2018-08-23T14:48:36.090Z,97772.22
2018-08-23T14:51:05.237Z,97767.01
2018-08-23T14:53:34.378Z,97777.91
2018-08-23T14:56:08.734Z,97776.60
2018-08-23T14:58:38.911Z,97779.21
2018-08-23T15:01:07.926Z,97776.81
2018-08-23T15:03:37.150Z,97774.41
2018-08-23T15:06:06.581Z,97764.88
2018-08-23T15:08:35.726Z,97776.88
2018-08-23T15:11:06.050Z,97778.68
2018-08-23T15:13:35.182Z,97785.33
2018-08-23T15:16:04.331Z,97792.56
2018-08-23T15:18:33.882Z,97783.50
2018-08-23T15:21:02.956Z,97769.13
2018-08-23T15:23:32.042Z,97764.37
2018-08-23T15:26:01.329Z,97765.68
2018-08-23T15:28:30.882Z,97762.84
2018-08-23T15:31:00.126Z,97757.45
2018-08-23T15:33:29.414Z,97754.96
2018-08-23T15:35:58.509Z,97757.23
2018-08-23T15:38:27.651Z,97755.69
2018-08-23T15:40:57.415Z,97742.23
2018-08-23T15:43:26.626Z,97737.08
2018-08-23T15:45:56.034Z,97738.80
2018-08-23T15:48:25.562Z,97736.36
2018-08-23T15:50:54.736Z,97728.78
2018-08-23T15:53:24.657Z,97726.91
2018-08-23T15:55:54.333Z,97719.95
2018-08-23T15:58:23.790Z,97717.13
2018-08-23T16:00:52.845Z,97717.16
2018-08-23T16:03:22.438Z,97716.20
2018-08-23T16:05:51.745Z,97717.53
2018-08-23T16:08:20.986Z,97714.37
2018-08-23T16:10:50.246Z,97718.62
2018-08-23T16:13:19.433Z,97716.23
2018-08-23T16:15:52.816Z,97726.20
2018-08-23T16:18:27.284Z,97720.47
2018-08-23T16:21:00.391Z,97718.89
2018-08-23T16:23:29.620Z,97717.15
2018-08-23T16:25:59.035Z,97715.41
2018-08-23T16:28:28.690Z,97717.91
2018-08-23T16:30:58.527Z,97710.20
2018-08-23T16:33:27.921Z,97713.47
2018-08-23T16:35:57.023Z,97709.98
2018-08-23T16:38:26.182Z,97706.84
2018-08-23T16:40:55.467Z,97703.50
2018-08-23T16:43:24.595Z,97709.98
2018-08-23T16:45:54.175Z,97707.38
2018-08-23T16:48:23.335Z,97702.26
2018-08-23T16:50:52.417Z,97703.06
2018-08-23T16:53:21.514Z,97697.36
2018-08-23T16:55:50.618Z,97694.20
2018-08-23T16:58:19.730Z,97695.91
2018-08-23T17:00:48.813Z,97697.03
2018-08-23T17:03:17.909Z,97700.28
2018-08-23T17:05:47.133Z,97695.73
2018-08-23T17:08:16.934Z,97696.38
2018-08-23T17:10:46.175Z,97689.52
2018-08-23T17:13:20.569Z,97681.77
2018-08-23T17:15:55.254Z,97676.53
2018-08-23T17:18:24.259Z,97675.30
2018-08-23T17:20:53.270Z,97675.21
2018-08-23T17:23:22.366Z,97671.42
2018-08-23T17:25:51.986Z,97667.34
2018-08-23T17:28:21.874Z,97653.30
2018-08-23T17:30:51.619Z,97655.95
2018-08-23T17:33:20.953Z,97663.80
2018-08-23T17:35:50.190Z,97659.14
2018-08-23T17:38:19.545Z,97658.97
2018-08-23T17:40:49.050Z,97661.97
2018-08-23T17:43:18.158Z,97663.06
2018-08-23T17:45:49.790Z,97667.27
2018-08-23T17:48:19.901Z,97668.47
2018-08-23T17:50:49.658Z,97668.56
2018-08-23T17:53:19.708Z,97673.71
2018-08-23T17:55:48.884Z,97681.10
2018-08-23T17:58:17.898Z,97682.16
2018-08-23T18:00:47.014Z,97678.56
2018-08-23T18:03:16.662Z,97676.70
2018-08-23T18:05:45.766Z,97677.20
2018-08-23T18:08:14.886Z,97678.29
2018-08-23T18:10:44.683Z,97677.55
2018-08-23T18:13:13.390Z,97672.70
2018-08-23T18:15:48.262Z,97667.00
2018-08-23T18:18:17.754Z,97670.69
2018-08-23T18:20:46.894Z,97676.94
2018-08-23T18:23:16.019Z,97688.10
2018-08-23T18:25:45.177Z,97695.66
2018-08-23T18:28:14.275Z,97695.38
2018-08-23T18:30:43.898Z,97693.58
2018-08-23T18:33:13.247Z,97697.70
2018-08-23T18:35:42.348Z,97700.30
2018-08-23T18:38:11.435Z,97703.91
2018-08-23T18:40:40.571Z,97707.81
2018-08-23T18:43:09.989Z,97709.34
2018-08-23T18:45:39.530Z,97713.70
2018-08-23T18:48:08.838Z,97712.39
2018-08-23T18:50:38.202Z,97712.65
2018-08-23T18:53:07.079Z,97708.99
2018-08-23T18:55:36.739Z,97712.88
2018-08-23T18:58:06.251Z,97724.23
2018-08-23T19:00:35.715Z,97714.39
2018-08-23T19:03:05.025Z,97714.66
2018-08-23T19:05:34.164Z,97710.77
2018-08-23T19:08:03.890Z,97709.00
2018-08-23T19:10:33.003Z,97711.56
2018-08-23T19:13:02.343Z,97712.61
2018-08-23T19:15:37.095Z,97716.73
2018-08-23T19:18:06.569Z,97716.74
2018-08-23T19:20:35.677Z,97722.95
2018-08-23T19:23:04.811Z,97717.52
2018-08-23T19:25:34.062Z,97729.17
2018-08-23T19:28:03.174Z,97729.16
2018-08-23T19:30:32.306Z,97734.03
2018-08-23T19:33:01.382Z,97741.48
2018-08-23T19:35:32.058Z,97747.66
2018-08-23T19:38:01.338Z,97747.48
2018-08-23T19:40:32.536Z,97745.97
2018-08-23T19:43:03.054Z,97749.09
2018-08-23T19:45:37.994Z,97745.45
2018-08-23T19:48:07.492Z,97747.81
2018-08-23T19:50:36.731Z,97745.23
2018-08-23T19:53:05.809Z,97749.86
2018-08-23T19:55:35.122Z,97745.18
2018-08-23T19:58:04.347Z,97742.59
2018-08-23T20:00:33.637Z,97734.90
2018-08-23T20:03:02.778Z,97748.03
2018-08-23T20:05:31.424Z,97749.84
2018-08-23T20:08:00.640Z,97760.39
2018-08-23T20:10:29.740Z,97758.57
2018-08-23T20:12:58.837Z,97760.39
2018-08-23T20:15:28.283Z,97766.11
2018-08-23T20:17:58.206Z,97764.05
2018-08-23T20:20:27.395Z,97766.92
2018-08-23T20:22:57.738Z,97762.20
2018-08-23T20:25:26.852Z,97771.20
2018-08-23T20:27:55.923Z,97765.81
2018-08-23T20:30:25.317Z,97765.56
2018-08-23T20:32:54.450Z,97762.47
2018-08-23T20:35:24.298Z,97761.48
2018-08-23T20:37:54.290Z,97760.45
2018-08-23T20:40:24.959Z,97756.46
2018-08-23T20:42:54.042Z,97758.27
2018-08-23T20:45:23.974Z,97764.73
2018-08-23T20:47:52.646Z,97760.64
2018-08-23T20:50:22.135Z,97759.95
2018-08-23T20:52:51.339Z,97750.97
2018-08-23T20:55:20.386Z,97746.06
2018-08-23T20:57:49.478Z,97750.20
2018-08-23T21:00:19.326Z,97751.77
2018-08-23T21:02:48.414Z,97758.48
2018-08-23T21:05:17.534Z,97767.52
2018-08-23T21:07:46.642Z,97766.41
2018-08-23T21:10:15.754Z,97768.20
2018-08-23T21:12:44.951Z,97769.77
2018-08-23T21:15:13.714Z,97776.30
2018-08-23T21:17:43.522Z,97775.05
2018-08-23T21:20:12.618Z,97773.75
2018-08-23T21:22:42.126Z,97778.58
2018-08-23T21:25:12.146Z,97785.02
2018-08-23T21:27:41.852Z,97781.91
2018-08-23T21:30:11.838Z,97794.00
2018-08-23T21:32:40.942Z,97812.30
2018-08-23T21:35:10.033Z,97834.50
2018-08-23T21:37:39.146Z,97832.94
2018-08-23T21:40:08.930Z,97818.25
2018-08-23T21:42:38.129Z,97818.59
2018-08-23T21:45:07.453Z,97818.30
2018-08-23T21:47:36.578Z,97807.68
2018-08-23T21:50:05.704Z,97805.85
2018-08-23T21:52:35.004Z,97793.43
2018-08-23T21:55:04.403Z,97787.22
2018-08-23T21:57:33.693Z,97776.43
2018-08-23T22:00:02.812Z,97777.09
2018-08-23T22:02:31.914Z,97773.50
2018-08-23T22:05:01.694Z,97767.80
2018-08-23T22:07:31.531Z,97762.34
2018-08-23T22:10:01.539Z,97756.41
2018-08-23T22:12:33.096Z,97758.20
2018-08-23T22:15:02.297Z,97757.45
2018-08-23T22:17:31.934Z,97769.58
2018-08-23T22:20:01.067Z,97769.52
2018-08-23T22:22:30.143Z,97764.09
2018-08-23T22:24:59.249Z,97767.20
2018-08-23T22:27:28.200Z,97765.88
2018-08-23T22:29:57.286Z,97765.38
2018-08-23T22:32:26.453Z,97770.52
2018-08-23T22:34:55.557Z,97773.09
2018-08-23T22:37:24.738Z,97771.80
2018-08-23T22:39:53.862Z,97772.37
2018-08-23T22:42:22.934Z,97766.16
2018-08-23T22:44:52.038Z,97761.02
2018-08-23T22:47:21.119Z,97760.22
2018-08-23T22:49:50.601Z,97763.33
2018-08-23T22:52:19.785Z,97758.41
2018-08-23T22:54:49.298Z,97756.53
2018-08-23T22:57:18.557Z,97749.83
2018-08-23T22:59:47.814Z,97746.50
2018-08-23T23:02:21.146Z,97746.77
2018-08-23T23:04:50.379Z,97738.19
2018-08-23T23:07:20.422Z,97737.45
2018-08-23T23:09:49.806Z,97734.12
2018-08-23T23:12:18.910Z,97721.20
2018-08-23T23:14:48.002Z,97708.26
2018-08-23T23:17:17.214Z,97707.48
2018-08-23T23:19:46.310Z,97708.19
2018-08-23T23:22:15.401Z,97708.16
2018-08-23T23:24:50.158Z,97709.67
2018-08-23T23:27:19.254Z,97710.91
2018-08-23T23:29:48.333Z,97715.69
2018-08-23T23:32:17.457Z,97709.23
2018-08-23T23:34:46.581Z,97706.11
2018-08-23T23:37:16.115Z,97705.02
2018-08-23T23:39:45.219Z,97702.95
2018-08-23T23:42:14.458Z,97698.55
2018-08-23T23:44:43.784Z,97694.42
2018-08-23T23:47:12.827Z,97691.53
2018-08-23T23:49:42.026Z,97690.49
2018-08-23T23:52:11.126Z,97695.86
2018-08-23T23:54:40.205Z,97691.66
2018-08-23T23:57:09.386Z,97695.83
2018-08-23T23:59:38.562Z,97699.14
